createdAt,value
2022-11-23T00:02:24.431Z,1.70
2022-11-23T00:04:51.639Z,1.50
2022-11-23T00:07:18.809Z,1.35
2022-11-23T00:09:46.011Z,1.70
2022-11-23T00:12:13.123Z,1.65
2022-11-23T00:14:40.273Z,1.40
2022-11-23T00:17:07.376Z,1.55
2022-11-23T00:19:34.664Z,1.40
2022-11-23T00:22:02.307Z,1.60
2022-11-23T00:24:29.472Z,1.45
2022-11-23T00:26:56.687Z,1.65
2022-11-23T00:29:23.833Z,1.50
2022-11-23T00:31:50.942Z,1.60
2022-11-23T00:34:18.128Z,1.20
2022-11-23T00:36:45.242Z,1.30
2022-11-23T00:39:12.356Z,1.30
2022-11-23T00:41:39.501Z,1.35
2022-11-23T00:44:06.671Z,1.38
2022-11-23T00:46:33.840Z,1.52
2022-11-23T00:49:01.709Z,1.60
2022-11-23T00:51:30.281Z,1.30
2022-11-23T00:53:57.756Z,1.10
2022-11-23T00:56:25.598Z,1.45
2022-11-23T00:58:53.529Z,1.33
2022-11-23T01:01:22.593Z,1.30
2022-11-23T01:03:51.905Z,1.50
2022-11-23T01:06:21.387Z,1.30
2022-11-23T01:09:08.497Z,1.33
2022-11-23T01:11:36.061Z,1.37
2022-11-23T01:14:03.849Z,1.58
2022-11-23T01:16:41.113Z,1.70
2022-11-23T01:19:09.404Z,1.55
2022-11-23T01:21:39.671Z,1.38
2022-11-23T01:24:08.116Z,1.30
2022-11-23T01:26:35.738Z,1.30
2022-11-23T01:29:02.894Z,1.40
2022-11-23T01:31:30.033Z,1.65
2022-11-23T01:33:58.339Z,1.30
2022-11-23T01:36:26.614Z,1.30
2022-11-23T01:38:54.280Z,1.38
2022-11-23T01:41:23.737Z,1.23
2022-11-23T01:43:51.476Z,1.38
2022-11-23T01:46:19.141Z,1.52
2022-11-23T01:48:57.184Z,1.30
2022-11-23T01:53:54.648Z,1.33
2022-11-23T01:56:25.801Z,1.40
2022-11-23T01:58:54.449Z,1.50
2022-11-23T02:01:21.612Z,1.40
2022-11-23T02:03:49.194Z,1.40
2022-11-23T02:06:17.862Z,1.40
2022-11-23T02:08:45.523Z,1.50
2022-11-23T02:11:13.970Z,1.30
2022-11-23T02:13:42.319Z,1.40
2022-11-23T02:16:09.456Z,1.40
2022-11-23T02:18:36.764Z,1.30
2022-11-23T02:21:04.822Z,1.30
2022-11-23T02:23:53.492Z,1.50
2022-11-23T02:26:31.164Z,1.48
2022-11-23T02:29:01.085Z,1.58
2022-11-23T02:31:28.195Z,1.30
2022-11-23T02:33:55.403Z,1.48
2022-11-23T02:36:42.303Z,1.40
2022-11-23T02:39:21.630Z,1.50
2022-11-23T02:41:49.730Z,1.60
2022-11-23T02:44:37.082Z,1.65
2022-11-23T02:47:05.057Z,1.50
2022-11-23T02:49:32.837Z,1.60
2022-11-23T02:52:00.166Z,1.50
2022-11-23T02:54:27.750Z,1.50
2022-11-23T02:56:54.906Z,1.40
2022-11-23T02:59:22.127Z,1.75
2022-11-23T03:01:49.855Z,1.40
2022-11-23T03:04:16.971Z,1.40
2022-11-23T03:06:44.605Z,1.25
2022-11-23T03:09:11.784Z,1.60
2022-11-23T03:11:38.935Z,1.30
2022-11-23T03:14:06.105Z,1.60
2022-11-23T03:16:36.023Z,1.48
2022-11-23T03:19:03.657Z,1.42
2022-11-23T03:21:30.789Z,1.58
2022-11-23T03:23:58.616Z,1.30
2022-11-23T03:26:25.746Z,1.40
2022-11-23T03:28:52.883Z,1.50
2022-11-23T03:31:20.029Z,1.70
2022-11-23T03:33:47.124Z,1.42
2022-11-23T03:36:14.303Z,1.80
2022-11-23T03:38:41.497Z,1.40
2022-11-23T03:41:09.369Z,1.95
2022-11-23T03:43:36.522Z,1.55
2022-11-23T03:46:03.626Z,1.42
2022-11-23T03:48:30.752Z,1.48
2022-11-23T03:50:57.849Z,1.60
2022-11-23T03:53:24.978Z,1.40
2022-11-23T03:55:54.863Z,1.60
2022-11-23T03:58:22.058Z,1.60
2022-11-23T04:00:49.205Z,1.40
2022-11-23T04:03:16.352Z,1.40
2022-11-23T04:05:45.754Z,1.30
2022-11-23T04:08:12.907Z,1.60
2022-11-23T04:10:40.020Z,1.50
2022-11-23T04:13:07.164Z,1.20
2022-11-23T04:15:34.301Z,1.35
2022-11-23T04:18:01.425Z,1.52
2022-11-23T04:20:28.598Z,1.60
2022-11-23T04:22:55.725Z,1.65
2022-11-23T04:25:23.271Z,1.50
2022-11-23T04:27:50.399Z,1.45
2022-11-23T04:30:17.538Z,1.02
2022-11-23T04:32:47.485Z,1.70
2022-11-23T04:35:14.647Z,1.55
2022-11-23T04:37:41.771Z,1.52
2022-11-23T04:40:09.236Z,1.80
2022-11-23T04:42:36.367Z,1.52
2022-11-23T04:45:03.509Z,1.52
2022-11-23T04:47:31.065Z,1.20
2022-11-23T04:49:58.206Z,1.70
2022-11-23T04:52:25.402Z,1.50
2022-11-23T04:54:52.522Z,1.50
2022-11-23T04:57:19.637Z,1.73
2022-11-23T04:59:46.766Z,1.58
2022-11-23T05:02:13.925Z,1.42
2022-11-23T05:04:41.084Z,1.50
2022-11-23T05:07:10.784Z,1.63
2022-11-23T05:09:37.953Z,1.60
2022-11-23T05:12:05.238Z,1.48
2022-11-23T05:14:32.393Z,1.40
2022-11-23T05:16:59.566Z,1.60
2022-11-23T05:19:26.677Z,1.25
2022-11-23T05:21:53.762Z,1.58
2022-11-23T05:24:21.037Z,1.60
2022-11-23T05:26:50.871Z,1.40
2022-11-23T05:29:21.955Z,1.40
2022-11-23T05:31:49.059Z,1.50
2022-11-23T05:34:16.293Z,1.60
2022-11-23T05:36:43.417Z,1.10
2022-11-23T05:39:10.615Z,1.50
2022-11-23T05:41:37.705Z,1.60
2022-11-23T05:44:04.903Z,1.60
2022-11-23T05:46:32.242Z,1.60
2022-11-23T05:48:59.351Z,1.80
2022-11-23T05:51:26.514Z,1.50
2022-11-23T05:53:53.663Z,1.40
2022-11-23T05:56:20.826Z,1.80
2022-11-23T05:58:47.933Z,1.40
2022-11-23T06:01:15.125Z,1.60
2022-11-23T06:03:42.295Z,1.48
2022-11-23T06:06:09.679Z,1.40
2022-11-23T06:08:36.854Z,1.57
2022-11-23T06:11:04.094Z,1.83
2022-11-23T06:13:31.206Z,1.60
2022-11-23T06:15:58.448Z,1.50
2022-11-23T06:18:25.562Z,1.52
2022-11-23T06:20:52.665Z,1.75
2022-11-23T06:23:19.825Z,1.55
2022-11-23T06:25:46.994Z,1.75
2022-11-23T06:28:14.152Z,1.40
2022-11-23T06:30:41.299Z,1.40
2022-11-23T06:33:08.578Z,1.85
2022-11-23T06:35:35.727Z,1.70
2022-11-23T06:38:05.334Z,1.60
2022-11-23T06:40:32.480Z,2.10
2022-11-23T06:43:00.259Z,1.70
2022-11-23T06:45:27.453Z,1.80
2022-11-23T06:47:57.789Z,1.88
2022-11-23T06:50:25.120Z,1.55
2022-11-23T06:52:57.101Z,1.70
2022-11-23T06:55:24.665Z,1.40
2022-11-23T06:57:51.961Z,1.50
2022-11-23T07:00:20.162Z,1.80
2022-11-23T07:02:53.928Z,1.70
2022-11-23T07:05:21.970Z,1.80
2022-11-23T07:07:49.745Z,1.70
2022-11-23T07:10:17.123Z,1.77
2022-11-23T07:12:44.282Z,1.60
2022-11-23T07:15:11.681Z,1.73
2022-11-23T07:17:39.994Z,1.97
2022-11-23T07:20:08.866Z,1.60
2022-11-23T07:22:36.737Z,1.83
2022-11-23T07:25:04.392Z,1.70
2022-11-23T07:27:31.721Z,1.50
2022-11-23T07:29:58.869Z,1.80
2022-11-23T07:32:26.030Z,1.50
2022-11-23T07:34:56.064Z,1.40
2022-11-23T07:37:23.196Z,1.80
2022-11-23T07:39:57.726Z,1.50
2022-11-23T07:42:36.864Z,1.80
2022-11-23T07:45:05.197Z,1.60
2022-11-23T07:47:32.360Z,1.75
2022-11-23T07:49:59.725Z,1.73
2022-11-23T07:52:27.308Z,1.90
2022-11-23T07:54:54.442Z,2.10
2022-11-23T07:57:21.534Z,1.95
2022-11-23T07:59:48.688Z,2.30
2022-11-23T08:02:16.792Z,2.40
2022-11-23T08:04:44.642Z,2.15
2022-11-23T08:07:12.139Z,2.42
2022-11-23T08:09:39.945Z,2.20
2022-11-23T08:12:07.562Z,2.03
2022-11-23T08:14:35.246Z,2.20
2022-11-23T08:17:02.674Z,2.20
2022-11-23T08:19:29.848Z,2.47
2022-11-23T08:21:57.411Z,2.25
2022-11-23T08:24:24.548Z,1.85
2022-11-23T08:26:53.841Z,2.17
2022-11-23T08:29:21.441Z,2.30
2022-11-23T08:31:50.824Z,1.88
2022-11-23T08:34:19.215Z,2.15
2022-11-23T08:36:46.412Z,2.20
2022-11-23T08:39:14.959Z,2.22
2022-11-23T08:41:42.953Z,2.17
2022-11-23T08:44:11.327Z,2.60
2022-11-23T08:46:39.427Z,2.47
2022-11-23T08:49:07.399Z,2.92
2022-11-23T08:51:35.174Z,2.97
2022-11-23T08:54:02.335Z,2.85
2022-11-23T08:56:29.486Z,3.03
2022-11-23T08:58:57.089Z,2.95
2022-11-23T09:01:24.322Z,3.15
2022-11-23T09:03:51.588Z,2.87
2022-11-23T09:06:19.260Z,2.78
2022-11-23T09:08:46.868Z,3.17
2022-11-23T09:11:15.024Z,3.28
2022-11-23T09:13:42.758Z,4.07
2022-11-23T09:16:11.038Z,3.72
2022-11-23T09:21:06.695Z,3.40
2022-11-23T09:23:34.337Z,3.58
2022-11-23T09:26:02.596Z,3.47
2022-11-23T09:30:58.404Z,3.25
2022-11-23T09:36:03.452Z,2.70
2022-11-23T09:38:55.136Z,2.80
2022-11-23T09:41:23.977Z,2.40
2022-11-23T09:43:58.179Z,2.55
2022-11-23T09:46:37.097Z,3.35
2022-11-23T09:49:04.434Z,3.08
2022-11-23T09:51:32.091Z,2.75
2022-11-23T09:54:25.516Z,2.67
2022-11-23T09:57:00.072Z,2.78
2022-11-23T09:59:32.394Z,3.00
2022-11-23T10:02:00.187Z,3.10
2022-11-23T10:04:29.294Z,2.58
2022-11-23T10:06:58.970Z,2.35
2022-11-23T10:09:35.315Z,2.70
2022-11-23T10:12:11.762Z,2.50
2022-11-23T10:14:50.828Z,2.60
2022-11-23T10:17:17.934Z,2.50
2022-11-23T10:19:45.041Z,2.45
2022-11-23T10:22:17.555Z,2.28
2022-11-23T10:24:48.019Z,2.17
2022-11-23T10:27:17.758Z,2.65
2022-11-23T10:29:46.596Z,2.20
2022-11-23T10:32:22.303Z,2.13
2022-11-23T10:34:52.082Z,2.78
2022-11-23T10:37:19.493Z,2.28
2022-11-23T10:39:46.691Z,2.50
2022-11-23T10:42:28.954Z,2.67
2022-11-23T10:44:56.802Z,2.25
2022-11-23T10:47:44.141Z,1.90
2022-11-23T10:50:22.083Z,1.90
2022-11-23T10:52:53.540Z,2.10
2022-11-23T10:55:23.628Z,2.28
2022-11-23T10:57:50.843Z,2.38
2022-11-23T11:00:19.645Z,2.25
2022-11-23T11:02:51.195Z,2.17
2022-11-23T11:06:08.091Z,2.13
2022-11-23T11:08:21.160Z,1.90
2022-11-23T11:10:52.330Z,2.38
2022-11-23T11:13:39.699Z,2.30
2022-11-23T11:16:08.079Z,1.90
2022-11-23T11:18:36.659Z,2.20
2022-11-23T11:21:08.478Z,2.22
2022-11-23T11:23:40.062Z,2.10
2022-11-23T11:26:12.278Z,2.20
2022-11-23T11:28:42.497Z,2.60
2022-11-23T11:31:34.184Z,1.98
2022-11-23T11:34:01.266Z,1.90
2022-11-23T11:36:30.900Z,1.80
2022-11-23T11:39:18.938Z,2.03
2022-11-23T11:41:48.024Z,1.90
2022-11-23T11:44:20.617Z,1.67
2022-11-23T11:46:50.248Z,1.90
2022-11-23T11:49:22.837Z,1.65
2022-11-23T11:51:54.446Z,2.00
2022-11-23T11:54:27.768Z,2.00
2022-11-23T11:57:06.633Z,2.00
2022-11-23T11:59:42.871Z,1.90
2022-11-23T12:02:27.859Z,1.90
2022-11-23T12:05:13.452Z,2.20
2022-11-23T12:08:04.071Z,1.88
2022-11-23T12:10:50.569Z,1.98
2022-11-23T12:13:19.631Z,1.80
2022-11-23T12:15:50.391Z,1.85
2022-11-23T12:18:17.971Z,1.60
2022-11-23T12:20:52.499Z,2.03
2022-11-23T12:23:46.809Z,1.67
2022-11-23T12:26:23.120Z,1.77
2022-11-23T12:28:53.713Z,1.83
2022-11-23T12:31:39.258Z,1.65
2022-11-23T12:34:06.375Z,1.67
2022-11-23T12:36:33.478Z,1.80
2022-11-23T12:39:19.647Z,1.60
2022-11-23T12:41:56.014Z,1.60
2022-11-23T12:44:35.217Z,2.00
2022-11-23T12:47:08.843Z,1.90
2022-11-23T12:49:51.977Z,1.60
2022-11-23T12:52:22.191Z,1.60
2022-11-23T12:55:05.945Z,1.52
2022-11-23T12:57:45.475Z,1.58
2022-11-23T13:00:12.917Z,1.80
2022-11-23T13:02:40.040Z,1.55
2022-11-23T13:05:13.032Z,1.77
2022-11-23T13:07:58.733Z,1.50
2022-11-23T13:10:30.435Z,1.90
2022-11-23T13:13:16.266Z,1.60
2022-11-23T13:16:08.184Z,1.70
2022-11-23T13:18:47.786Z,1.88
2022-11-23T13:21:17.655Z,1.52
2022-11-23T13:23:44.967Z,1.65
2022-11-23T13:26:20.987Z,1.57
2022-11-23T13:28:52.104Z,1.52
2022-11-23T13:31:20.944Z,1.80
2022-11-23T13:33:48.969Z,1.65
2022-11-23T13:37:10.677Z,1.70
2022-11-23T13:39:41.586Z,1.52
2022-11-23T13:42:10.901Z,1.42
2022-11-23T13:44:38.320Z,1.40
2022-11-23T13:47:17.507Z,1.60
2022-11-23T13:49:45.808Z,1.50
2022-11-23T13:52:22.441Z,1.50
2022-11-23T13:55:09.483Z,1.75
2022-11-23T13:57:40.857Z,1.30
2022-11-23T14:00:26.869Z,1.50
2022-11-23T14:03:13.953Z,1.60
2022-11-23T14:05:50.275Z,1.33
2022-11-23T14:08:19.421Z,1.55
2022-11-23T14:10:46.690Z,1.58
2022-11-23T14:13:21.591Z,1.50
2022-11-23T14:16:00.532Z,1.50
2022-11-23T14:18:39.618Z,1.63
2022-11-23T14:21:21.836Z,1.50
2022-11-23T14:23:51.988Z,1.50
2022-11-23T14:26:35.212Z,1.48
2022-11-23T14:29:18.156Z,1.50
2022-11-23T14:32:00.767Z,1.50
2022-11-23T14:34:43.333Z,1.52
2022-11-23T14:37:32.085Z,1.48
2022-11-23T14:40:07.245Z,1.50
2022-11-23T14:42:37.114Z,1.58
2022-11-23T14:45:05.850Z,1.40
2022-11-23T14:47:33.206Z,1.30
2022-11-23T14:50:00.409Z,1.27
2022-11-23T14:52:32.931Z,1.60
2022-11-23T14:55:02.342Z,1.30
2022-11-23T14:57:32.326Z,1.30
2022-11-23T15:00:01.837Z,1.60
2022-11-23T15:02:37.516Z,1.45
2022-11-23T15:05:43.320Z,1.55
2022-11-23T15:08:14.151Z,1.60
2022-11-23T15:10:59.791Z,1.45
2022-11-23T15:13:31.059Z,1.55
2022-11-23T15:15:59.078Z,1.58
2022-11-23T15:18:33.514Z,1.50
2022-11-23T15:21:02.537Z,1.60
2022-11-23T15:23:37.102Z,1.40
2022-11-23T15:26:05.715Z,1.40
2022-11-23T15:28:38.538Z,1.30
2022-11-23T15:31:20.778Z,1.20
2022-11-23T15:33:49.205Z,1.20
2022-11-23T15:36:17.659Z,1.30
2022-11-23T15:38:45.186Z,1.40
2022-11-23T15:41:12.378Z,1.55
2022-11-23T15:43:51.870Z,1.40
2022-11-23T15:46:19.270Z,1.40
2022-11-23T15:48:48.779Z,1.30
2022-11-23T15:51:25.956Z,1.13
2022-11-23T15:53:54.072Z,1.50
2022-11-23T15:58:48.927Z,1.50
2022-11-23T16:01:16.313Z,1.40
2022-11-23T16:03:53.628Z,1.40
2022-11-23T16:06:24.820Z,1.40
2022-11-23T16:08:52.165Z,1.30
2022-11-23T16:11:23.935Z,1.60
2022-11-23T16:13:51.074Z,1.40
2022-11-23T16:16:21.422Z,1.35
2022-11-23T16:18:56.716Z,1.20
2022-11-23T16:21:25.520Z,1.35
2022-11-23T16:23:54.474Z,1.40
2022-11-23T16:26:22.831Z,1.23
2022-11-23T16:28:57.347Z,1.25
2022-11-23T16:31:28.982Z,1.45
2022-11-23T16:33:56.360Z,1.30
2022-11-23T16:36:23.664Z,1.37
2022-11-23T16:38:50.803Z,1.30
2022-11-23T16:41:17.941Z,1.10
2022-11-23T16:43:45.062Z,1.50
2022-11-23T16:46:12.246Z,1.20
2022-11-23T16:48:40.760Z,1.20
2022-11-23T16:51:10.764Z,1.10
2022-11-23T16:54:11.309Z,1.30
2022-11-23T16:56:26.785Z,1.20
2022-11-23T16:58:55.235Z,1.25
2022-11-23T17:01:23.861Z,1.42
2022-11-23T17:03:54.098Z,1.20
2022-11-23T17:06:24.716Z,1.48
2022-11-23T17:08:59.345Z,1.40
2022-11-23T17:11:30.481Z,1.10
2022-11-23T17:13:57.701Z,1.60
2022-11-23T17:16:27.525Z,1.17
2022-11-23T17:18:55.192Z,1.30
2022-11-23T17:21:22.316Z,1.13
2022-11-23T17:23:49.470Z,1.40
2022-11-23T17:26:37.268Z,1.48
2022-11-23T17:29:06.070Z,1.20
2022-11-23T17:31:33.459Z,1.27
2022-11-23T17:34:00.659Z,1.23
2022-11-23T17:36:27.901Z,1.17
2022-11-23T17:38:55.279Z,1.20
2022-11-23T17:41:22.441Z,1.20
2022-11-23T17:43:52.281Z,1.25
2022-11-23T17:46:21.764Z,1.30
2022-11-23T17:48:51.125Z,1.30
2022-11-23T17:51:18.304Z,1.50
2022-11-23T17:53:47.673Z,1.10
2022-11-23T17:56:19.403Z,1.27
2022-11-23T17:58:47.094Z,1.20
2022-11-23T18:01:15.613Z,1.38
2022-11-23T18:03:45.204Z,1.27
2022-11-23T18:06:16.938Z,1.25
2022-11-23T18:08:47.033Z,1.30
2022-11-23T18:11:14.769Z,1.40
2022-11-23T18:13:42.400Z,1.25
2022-11-23T18:16:10.225Z,1.20
2022-11-23T18:18:37.510Z,1.33
2022-11-23T18:21:05.074Z,1.40
2022-11-23T18:23:32.314Z,1.50
2022-11-23T18:26:16.434Z,1.10
2022-11-23T18:28:43.592Z,1.40
2022-11-23T18:31:30.745Z,1.50
2022-11-23T18:33:57.907Z,1.30
2022-11-23T18:36:27.589Z,1.20
2022-11-23T18:38:55.326Z,1.40
2022-11-23T18:41:22.796Z,1.20
2022-11-23T18:43:50.171Z,1.33
2022-11-23T18:46:20.536Z,1.30
2022-11-23T18:48:48.758Z,1.30
2022-11-23T18:53:44.920Z,1.40
2022-11-23T18:56:12.620Z,1.38
2022-11-23T18:58:40.749Z,1.40
2022-11-23T19:03:40.209Z,1.40
2022-11-23T19:06:08.221Z,1.38
2022-11-23T19:08:40.298Z,1.30
2022-11-23T19:11:08.556Z,1.23
2022-11-23T19:16:16.114Z,1.25
2022-11-23T19:18:43.664Z,1.40
2022-11-23T19:21:14.817Z,1.52
2022-11-23T19:23:42.342Z,1.30
2022-11-23T19:26:09.687Z,1.42
2022-11-23T19:28:37.092Z,1.60
2022-11-23T19:31:14.598Z,1.40
2022-11-23T19:33:42.022Z,1.40
2022-11-23T19:36:10.357Z,1.40
2022-11-23T19:38:37.507Z,1.55
2022-11-23T19:41:04.777Z,1.50
2022-11-23T19:43:32.703Z,1.60
2022-11-23T19:46:01.583Z,1.15
2022-11-23T19:48:30.609Z,1.35
2022-11-23T19:51:01.514Z,1.40
2022-11-23T19:53:31.108Z,1.40
2022-11-23T19:56:02.575Z,1.50
2022-11-23T19:58:33.253Z,1.40
2022-11-23T20:01:01.217Z,1.27
2022-11-23T20:03:28.439Z,1.23
2022-11-23T20:05:56.847Z,1.30
2022-11-23T20:08:23.969Z,1.58
2022-11-23T20:10:51.166Z,1.50
2022-11-23T20:13:18.415Z,1.38
2022-11-23T20:15:47.059Z,1.67
2022-11-23T20:18:14.219Z,1.75
2022-11-23T20:20:45.823Z,1.52
2022-11-23T20:23:14.706Z,1.60
2022-11-23T20:25:42.380Z,1.80
2022-11-23T20:28:12.475Z,1.48
2022-11-23T20:30:39.638Z,1.73
2022-11-23T20:33:06.803Z,1.48
2022-11-23T20:35:33.957Z,1.60
2022-11-23T20:38:01.076Z,1.30
2022-11-23T20:40:28.451Z,1.45
2022-11-23T20:42:59.578Z,1.43
2022-11-23T20:45:27.282Z,1.50
2022-11-23T20:47:54.861Z,1.50
2022-11-23T20:50:25.273Z,1.98
2022-11-23T20:52:53.239Z,1.58
2022-11-23T20:55:23.430Z,1.80
2022-11-23T20:57:51.271Z,1.50
2022-11-23T21:00:19.825Z,1.80
2022-11-23T21:02:49.874Z,1.42
2022-11-23T21:05:17.197Z,1.60
2022-11-23T21:07:49.269Z,1.47
2022-11-23T21:10:35.154Z,1.50
2022-11-23T21:13:21.401Z,1.48
2022-11-23T21:15:48.599Z,1.50
2022-11-23T21:18:15.939Z,1.60
2022-11-23T21:20:43.693Z,1.90
2022-11-23T21:23:11.065Z,1.40
2022-11-23T21:25:38.261Z,1.80
2022-11-23T21:28:05.621Z,1.70
2022-11-23T21:30:33.411Z,1.73
2022-11-23T21:33:01.004Z,1.60
2022-11-23T21:35:28.294Z,1.80
2022-11-23T21:37:55.395Z,1.70
2022-11-23T21:40:22.983Z,1.70
2022-11-23T21:42:51.886Z,1.55
2022-11-23T21:45:19.020Z,1.90
2022-11-23T21:47:46.627Z,1.60
2022-11-23T21:50:13.800Z,1.80
2022-11-23T21:52:41.018Z,1.77
2022-11-23T21:55:08.999Z,1.67
2022-11-23T21:57:36.146Z,1.80
2022-11-23T22:00:03.473Z,1.60
2022-11-23T22:02:30.648Z,1.83
2022-11-23T22:05:00.045Z,1.80
2022-11-23T22:07:27.213Z,1.80
2022-11-23T22:09:54.382Z,1.58
2022-11-23T22:12:21.513Z,1.90
2022-11-23T22:14:48.733Z,1.60
2022-11-23T22:17:15.875Z,1.50
2022-11-23T22:19:45.534Z,1.50
2022-11-23T22:22:12.644Z,1.58
2022-11-23T22:24:40.103Z,1.77
2022-11-23T22:27:07.678Z,1.63
2022-11-23T22:29:35.301Z,1.65
2022-11-23T22:32:02.489Z,1.67
2022-11-23T22:34:30.059Z,1.63
2022-11-23T22:36:57.763Z,1.70
2022-11-23T22:39:24.909Z,1.90
2022-11-23T22:41:52.096Z,1.80
2022-11-23T22:44:19.201Z,1.87
2022-11-23T22:46:46.403Z,1.90
2022-11-23T22:49:13.575Z,1.88
2022-11-23T22:51:41.475Z,1.50
2022-11-23T22:54:09.599Z,1.67
2022-11-23T22:59:06.164Z,1.70
2022-11-23T23:01:33.857Z,1.80
2022-11-23T23:04:02.796Z,1.98
2022-11-23T23:06:33.647Z,1.70
2022-11-23T23:09:02.601Z,2.10
2022-11-23T23:11:31.161Z,1.83
2022-11-23T23:13:59.225Z,2.00
2022-11-23T23:16:27.398Z,1.63
2022-11-23T23:21:22.240Z,1.93
2022-11-23T23:23:50.852Z,1.65
2022-11-23T23:26:18.724Z,2.00
2022-11-23T23:28:46.029Z,1.85
2022-11-23T23:31:14.740Z,2.00
2022-11-23T23:33:41.955Z,1.73
2022-11-23T23:36:13.520Z,1.73
2022-11-23T23:38:41.095Z,1.75
2022-11-23T23:41:09.069Z,1.88
2022-11-23T23:43:36.253Z,1.50
2022-11-23T23:46:05.172Z,1.92
2022-11-23T23:48:33.779Z,1.70
2022-11-23T23:51:12.001Z,1.77
2022-11-23T23:53:39.628Z,1.65
2022-11-23T23:56:08.243Z,1.67
2022-11-23T23:58:35.882Z,1.75
